createdAt,value
2022-11-05T00:02:50.471Z,95.51
2022-11-05T00:08:12.328Z,95.40
2022-11-05T00:13:33.787Z,94.79
2022-11-05T00:18:35.704Z,95.46
2022-11-05T00:23:56.115Z,95.69
2022-11-05T00:28:58.333Z,95.86
2022-11-05T00:34:00.126Z,95.64
2022-11-05T00:39:01.889Z,96.07
2022-11-05T00:44:22.182Z,95.80
2022-11-05T00:49:29.873Z,95.44
2022-11-05T00:54:31.460Z,95.41
2022-11-05T00:59:33.092Z,95.36
2022-11-05T01:04:35.331Z,95.40
2022-11-05T01:09:37.001Z,95.26
2022-11-05T01:14:38.918Z,95.79
2022-11-05T01:19:40.744Z,95.56
2022-11-05T01:24:42.388Z,95.27
2022-11-05T01:29:44.238Z,95.70
2022-11-05T01:34:45.854Z,95.43
2022-11-05T01:39:47.776Z,95.55
2022-11-05T01:44:57.590Z,95.46
2022-11-05T01:50:02.704Z,95.23
2022-11-05T01:55:05.471Z,95.80
2022-11-05T02:00:07.721Z,96.10
2022-11-05T02:05:15.699Z,96.51
2022-11-05T02:10:20.395Z,96.46
2022-11-05T02:15:40.504Z,96.94
2022-11-05T02:20:54.316Z,96.67
2022-11-05T02:26:28.714Z,96.34
2022-11-05T02:31:54.540Z,97.35
2022-11-05T02:37:16.185Z,97.40
2022-11-05T02:42:35.700Z,97.42
2022-11-05T02:47:57.321Z,96.96
2022-11-05T02:53:01.983Z,97.33
2022-11-05T02:58:04.976Z,97.45
2022-11-05T03:03:15.207Z,97.43
2022-11-05T03:08:32.903Z,97.33
2022-11-05T03:13:49.662Z,96.85
2022-11-05T03:19:06.716Z,96.92
2022-11-05T03:24:22.569Z,96.02
2022-11-05T03:29:28.196Z,97.29
2022-11-05T03:34:35.326Z,98.52
2022-11-05T03:39:52.927Z,98.85
2022-11-05T03:44:58.826Z,98.93
2022-11-05T03:50:25.182Z,98.76
2022-11-05T03:55:35.231Z,98.42
2022-11-05T04:00:38.266Z,98.30
2022-11-05T04:05:40.618Z,98.28
2022-11-05T04:11:05.358Z,98.19
2022-11-05T04:16:25.835Z,98.26
2022-11-05T04:21:46.180Z,98.41
2022-11-05T04:26:47.981Z,98.41
2022-11-05T04:31:50.090Z,98.06
2022-11-05T04:36:53.136Z,98.12
2022-11-05T04:41:54.858Z,98.11
2022-11-05T04:46:56.499Z,98.05
2022-11-05T04:51:58.243Z,98.14
2022-11-05T04:56:59.981Z,98.40
2022-11-05T05:02:01.786Z,98.43
2022-11-05T05:07:03.549Z,98.24
2022-11-05T05:12:05.566Z,98.30
2022-11-05T05:17:07.260Z,98.28
2022-11-05T05:22:08.947Z,98.09
2022-11-05T05:27:11.303Z,98.12
2022-11-05T05:32:12.996Z,98.15
2022-11-05T05:37:14.945Z,97.90
2022-11-05T05:42:16.644Z,98.05
2022-11-05T05:47:18.669Z,97.60
2022-11-05T05:52:20.371Z,97.52
2022-11-05T05:57:22.196Z,97.45
2022-11-05T06:02:24.092Z,97.34
2022-11-05T06:07:25.908Z,97.51
2022-11-05T06:12:29.917Z,97.52
2022-11-05T06:17:32.776Z,97.68
2022-11-05T06:22:34.323Z,97.52
2022-11-05T06:27:36.803Z,97.51
2022-11-05T06:32:38.487Z,98.23
2022-11-05T06:37:40.482Z,98.05
2022-11-05T06:42:42.111Z,98.76
2022-11-05T06:47:43.860Z,99.62
2022-11-05T06:52:52.240Z,99.80
2022-11-05T06:57:54.279Z,100.00
2022-11-05T07:02:56.870Z,99.93
2022-11-05T07:07:58.653Z,99.67
2022-11-05T07:13:03.753Z,99.98
2022-11-05T07:18:09.440Z,99.30
2022-11-05T07:23:13.748Z,99.77
2022-11-05T07:28:15.995Z,99.12
2022-11-05T07:33:18.178Z,99.09
2022-11-05T07:38:19.837Z,99.09
2022-11-05T07:43:21.585Z,98.84
2022-11-05T07:48:23.298Z,99.00
2022-11-05T07:53:25.276Z,99.14
2022-11-05T07:58:26.969Z,99.31
2022-11-05T08:03:29.097Z,99.56
2022-11-05T08:08:30.928Z,99.06
2022-11-05T08:13:33.638Z,98.76
2022-11-05T08:18:35.923Z,99.69
2022-11-05T08:23:38.990Z,99.69
2022-11-05T08:28:41.193Z,99.70
2022-11-05T08:33:42.928Z,99.77
2022-11-05T08:38:44.636Z,99.94
2022-11-05T08:43:46.294Z,100.00
2022-11-05T08:48:48.059Z,100.00
2022-11-05T08:53:49.716Z,100.00
2022-11-05T08:58:51.477Z,100.00
2022-11-05T09:03:53.467Z,100.00
2022-11-05T09:08:55.359Z,100.00
2022-11-05T09:13:57.046Z,100.00
2022-11-05T09:18:58.701Z,100.00
2022-11-05T09:24:00.636Z,100.00
2022-11-05T09:29:02.311Z,100.00
2022-11-05T09:34:03.981Z,100.00
2022-11-05T09:39:06.061Z,100.00
2022-11-05T09:44:17.846Z,100.00
2022-11-05T09:49:30.691Z,100.00
2022-11-05T09:54:33.152Z,100.00
2022-11-05T09:59:51.754Z,100.00
2022-11-05T10:05:02.431Z,100.00
2022-11-05T10:10:15.496Z,100.00
2022-11-05T10:15:22.523Z,100.00
2022-11-05T10:20:39.188Z,99.31
2022-11-05T10:25:51.506Z,98.84
2022-11-05T10:30:58.942Z,98.58
2022-11-05T10:36:07.753Z,98.90
2022-11-05T10:41:27.761Z,98.93
2022-11-05T10:46:55.382Z,98.94
2022-11-05T10:51:59.918Z,98.36
2022-11-05T10:57:27.523Z,97.81
2022-11-05T11:02:30.280Z,98.10
2022-11-05T11:07:32.626Z,97.23
2022-11-05T11:12:42.887Z,96.79
2022-11-05T11:17:44.609Z,97.05
2022-11-05T11:23:11.331Z,95.65
2022-11-05T11:28:21.256Z,94.00
2022-11-05T11:33:27.420Z,93.99
2022-11-05T11:38:31.475Z,93.29
2022-11-05T11:43:36.452Z,92.66
2022-11-05T11:48:40.751Z,92.09
2022-11-05T11:53:42.440Z,91.56
2022-11-05T11:58:49.767Z,91.33
2022-11-05T12:04:08.627Z,91.73
2022-11-05T12:09:36.155Z,91.99
2022-11-05T12:14:46.668Z,93.32
2022-11-05T12:19:57.068Z,93.98
2022-11-05T12:25:23.962Z,94.58
2022-11-05T12:30:25.829Z,94.60
2022-11-05T12:35:58.185Z,95.11
2022-11-05T12:41:16.036Z,93.84
2022-11-05T12:46:35.108Z,94.46
2022-11-05T12:51:52.106Z,95.05
2022-11-05T12:56:58.426Z,95.51
2022-11-05T13:02:33.335Z,95.58
2022-11-05T13:07:39.980Z,95.66
2022-11-05T13:12:42.576Z,95.72
2022-11-05T13:17:55.171Z,96.38
2022-11-05T13:23:19.954Z,96.85
2022-11-05T13:28:39.476Z,96.06
2022-11-05T13:33:44.263Z,95.26
2022-11-05T13:39:09.337Z,95.25
2022-11-05T13:44:52.962Z,95.18
2022-11-05T13:50:15.915Z,92.98
2022-11-05T13:55:48.805Z,92.54
2022-11-05T14:01:23.043Z,92.87
2022-11-05T14:06:28.948Z,93.08
2022-11-05T14:11:34.129Z,93.64
2022-11-05T14:17:14.172Z,95.14
2022-11-05T14:22:37.486Z,96.20
2022-11-05T14:27:39.095Z,96.53
2022-11-05T14:32:46.173Z,96.80
2022-11-05T14:37:54.811Z,97.48
2022-11-05T14:43:03.176Z,97.04
2022-11-05T14:48:22.605Z,97.04
2022-11-05T14:53:35.757Z,97.36
2022-11-05T14:58:40.365Z,96.07
2022-11-05T15:03:46.222Z,96.00
2022-11-05T15:08:48.833Z,95.76
2022-11-05T15:13:53.424Z,95.51
2022-11-05T15:18:57.439Z,94.78
2022-11-05T15:24:01.627Z,94.41
2022-11-05T15:29:15.552Z,94.21
2022-11-05T15:34:21.138Z,93.45
2022-11-05T15:39:30.221Z,93.15
2022-11-05T15:44:38.749Z,93.69
2022-11-05T15:49:43.110Z,94.32
2022-11-05T15:54:45.240Z,94.56
2022-11-05T15:59:47.478Z,95.04
2022-11-05T16:04:49.559Z,95.16
2022-11-05T16:09:57.801Z,95.37
2022-11-05T16:15:04.371Z,95.48
2022-11-05T16:20:29.673Z,95.45
2022-11-05T16:25:44.166Z,94.91
2022-11-05T16:31:03.568Z,95.25
2022-11-05T16:36:07.399Z,95.46
2022-11-05T16:41:17.143Z,95.28
2022-11-05T16:46:19.465Z,95.40
2022-11-05T16:51:27.187Z,95.07
2022-11-05T16:56:29.694Z,94.82
2022-11-05T17:01:40.755Z,94.96
2022-11-05T17:06:43.713Z,95.51
2022-11-05T17:11:45.659Z,96.41
2022-11-05T17:16:47.310Z,96.19
2022-11-05T17:21:50.025Z,96.69
2022-11-05T17:26:51.917Z,96.88
2022-11-05T17:31:53.677Z,96.73
2022-11-05T17:36:55.402Z,97.37
2022-11-05T17:41:57.163Z,97.48
2022-11-05T17:46:58.776Z,98.02
2022-11-05T17:52:00.384Z,98.08
2022-11-05T17:57:06.084Z,98.19
2022-11-05T18:02:11.099Z,98.64
2022-11-05T18:07:14.914Z,98.99
2022-11-05T18:12:16.653Z,99.45
2022-11-05T18:17:18.396Z,99.49
2022-11-05T18:22:20.102Z,99.54
2022-11-05T18:27:24.546Z,99.67
2022-11-05T18:32:26.907Z,99.55
2022-11-05T18:37:28.697Z,99.26
2022-11-05T18:42:30.372Z,98.89
2022-11-05T18:47:33.543Z,98.58
2022-11-05T18:52:35.912Z,98.54
2022-11-05T18:57:37.639Z,98.43
2022-11-05T19:02:39.737Z,98.26
2022-11-05T19:07:41.616Z,97.65
2022-11-05T19:12:44.371Z,97.53
2022-11-05T19:17:46.564Z,96.86
2022-11-05T19:22:48.356Z,97.29
2022-11-05T19:27:50.078Z,96.88
2022-11-05T19:32:51.909Z,96.58
2022-11-05T19:37:53.587Z,96.81
2022-11-05T19:42:56.188Z,97.05
2022-11-05T19:47:57.935Z,96.27
2022-11-05T19:52:59.559Z,95.83
2022-11-05T19:58:01.424Z,96.10
2022-11-05T20:03:03.349Z,96.00
2022-11-05T20:08:05.258Z,96.18
2022-11-05T20:13:06.980Z,96.00
2022-11-05T20:18:08.953Z,95.64
2022-11-05T20:23:11.356Z,95.43
2022-11-05T20:28:13.680Z,95.06
2022-11-05T20:33:15.635Z,94.35
2022-11-05T20:38:17.556Z,94.24
2022-11-05T20:43:19.306Z,94.15
2022-11-05T20:48:21.039Z,94.27
2022-11-05T20:53:23.018Z,94.35
2022-11-05T20:58:24.900Z,93.85
2022-11-05T21:03:27.223Z,92.66
2022-11-05T21:08:29.364Z,92.72
2022-11-05T21:13:31.158Z,93.54
2022-11-05T21:18:35.639Z,94.30
2022-11-05T21:23:37.444Z,94.29
2022-11-05T21:28:40.350Z,93.62
2022-11-05T21:33:42.143Z,92.60
2022-11-05T21:38:43.885Z,92.20
2022-11-05T21:43:45.562Z,91.58
2022-11-05T21:48:47.446Z,92.27
2022-11-05T21:54:07.539Z,93.00
2022-11-05T21:59:30.898Z,93.13
2022-11-05T22:04:37.767Z,92.93
2022-11-05T22:09:39.435Z,92.04
2022-11-05T22:14:41.800Z,91.45
2022-11-05T22:19:43.580Z,91.62
2022-11-05T22:24:45.332Z,91.21
2022-11-05T22:29:47.174Z,91.33
2022-11-05T22:34:49.241Z,92.27
2022-11-05T22:39:51.000Z,92.78
2022-11-05T22:44:52.656Z,92.66
2022-11-05T22:49:54.389Z,92.86
2022-11-05T22:54:56.135Z,92.43
2022-11-05T22:59:57.808Z,93.06
2022-11-05T23:04:59.490Z,92.63
2022-11-05T23:10:19.872Z,93.25
2022-11-05T23:15:40.680Z,92.70
2022-11-05T23:21:01.062Z,93.83
2022-11-05T23:26:22.878Z,93.52
2022-11-05T23:31:43.236Z,93.41
2022-11-05T23:37:03.672Z,93.80
2022-11-05T23:42:24.638Z,93.47
2022-11-05T23:47:45.085Z,93.60
2022-11-05T23:52:47.279Z,93.35
2022-11-05T23:57:49.252Z,92.75
